Terminal Aerodrome Forecast
Issued by NWS

Home | Current Version | Previous Version | Text Only | Print | Product List | Glossary On
Versions: 1 2 3 4 5 6 7 8 9 10 11 12 13 14
000
FTUS43 KMPX 161120
TAFRNH
TAF
KRNH 161120Z 1612/1712 18005KT 5SM BR BKN250
     FM161300 VRB03KT P6SM BKN150
     FM161700 13003KT 4SM BR OVC020
     FM170000 05004KT 4SM -FZRASN BR OVC015
     FM170500 VRB03KT 2SM -SN BR OVC015=

USA.gov is the U.S. government's official web portal to all federal, state and local government web resources and services.